Chitral Weather



Chitral's Current Weather

Temprature -10.95o overcast clouds

overcast clouds

Rain: 0 %

Min Temprature-10.95o
Max Temprature-10.95o
Humidity65
Wind Speed1.62 m/h
Sun Rise07:13:19
Sun Set16:59:29
Current Time: 12-Dec-2019 01:29:19
Lat/Lon: 35.85, 71.79




Chitral's Geo Location



Chitral's Weather Forecast

Time Overall Temp Min Temp Max Temp Humidity Wind Speed Rain
12-Dec-2019 (Thu)
02:00:00 overcast clouds -10.950 -10.950 -10.950 65 1.62 m/h 0 %
05:00:00 overcast clouds -11.360 -11.360 -11.360 62 2.14 m/h 0 %
08:00:00 overcast clouds -11.050 -11.050 -11.050 62 2.54 m/h 0 %
11:00:00 overcast clouds -7.450 -7.450 -7.450 66 1.41 m/h 0 %
14:00:00 overcast clouds -6.070 -6.070 -6.070 70 2.74 m/h 0 %
17:00:00 overcast clouds -9.000 -9.000 -9.000 73 2.78 m/h 0 %
20:00:00 overcast clouds -10.990 -10.990 -10.990 60 2.73 m/h 0 %
23:00:00 overcast clouds -10.930 -10.930 -10.930 54 2.92 m/h 0 %
13-Dec-2019 (Fri)
02:00:00 overcast clouds -11.670 -11.670 -11.670 55 3.05 m/h 0 %
05:00:00 overcast clouds -12.000 -12.000 -12.000 55 3.56 m/h 0 %
08:00:00 overcast clouds -12.560 -12.560 -12.560 54 2.86 m/h 0 %
11:00:00 overcast clouds -8.190 -8.190 -8.190 66 3.46 m/h 0 %
14:00:00 overcast clouds -6.580 -6.580 -6.580 64 1.34 m/h 0 %
17:00:00 overcast clouds -10.230 -10.230 -10.230 69 1.03 m/h 0 %
20:00:00 overcast clouds -10.520 -10.520 -10.520 75 0.59 m/h 0 %
23:00:00 overcast clouds -11.740 -11.740 -11.740 79 1.13 m/h 0 %
14-Dec-2019 (Sat)
02:00:00 overcast clouds -12.220 -12.220 -12.220 78 1.22 m/h 0 %
05:00:00 overcast clouds -12.850 -12.850 -12.850 75 1.75 m/h 0 %
08:00:00 overcast clouds -12.350 -12.350 -12.350 75 1.81 m/h 0 %
11:00:00 overcast clouds -8.730 -8.730 -8.730 80 1.02 m/h 0 %
14:00:00 broken clouds -8.130 -8.130 -8.130 83 1.09 m/h 0 %
17:00:00 scattered clouds -12.900 -12.900 -12.900 84 1.28 m/h 0 %
20:00:00 scattered clouds -13.420 -13.420 -13.420 65 1.65 m/h 0 %
23:00:00 scattered clouds -13.850 -13.850 -13.850 63 2.3 m/h 0 %
15-Dec-2019 (Sun)
02:00:00 broken clouds -14.360 -14.360 -14.360 69 3 m/h 0 %
05:00:00 broken clouds -15.750 -15.750 -15.750 60 3.28 m/h 0 %
08:00:00 clear sky -15.950 -15.950 -15.950 50 3.51 m/h 0 %
11:00:00 clear sky -11.170 -11.170 -11.170 62 2.69 m/h 0 %
14:00:00 clear sky -9.530 -9.530 -9.530 66 1.16 m/h 0 %
17:00:00 clear sky -13.770 -13.770 -13.770 65 1.85 m/h 0 %
20:00:00 scattered clouds -14.700 -14.700 -14.700 58 2.05 m/h 0 %
23:00:00 scattered clouds -15.460 -15.460 -15.460 56 2.97 m/h 0 %
16-Dec-2019 (Mon)
02:00:00 scattered clouds -16.300 -16.300 -16.300 53 3.43 m/h 0 %
05:00:00 scattered clouds -17.240 -17.240 -17.240 50 3.86 m/h 0 %
08:00:00 clear sky -17.020 -17.020 -17.020 48 4.01 m/h 0 %
11:00:00 clear sky -11.980 -11.980 -11.980 61 4.27 m/h 0 %
14:00:00 clear sky -10.280 -10.280 -10.280 68 3.16 m/h 0 %
17:00:00 clear sky -14.490 -14.490 -14.490 60 2.8 m/h 0 %
20:00:00 clear sky -15.480 -15.480 -15.480 47 3.31 m/h 0 %
23:00:00 clear sky -16.560 -16.560 -16.560 38 3.96 m/h 0 %

Famous Cities (61)